Time;durP1;ratioP1;P1;durP2;ratioP2;P2;SDS_P1;SDS_P2;PMS_P1;PMS_P2;Temp;Humidity;BMP_temperature;BMP_pressure;BME280_temperature;BME280_humidity;BME280_pressure;Samples;Min_cycle;Max_cycle;Signal;HPM_P1;HPM_P2
2023/04/30 00:01:09;;;;;;;;;;;10.10;74.00;;;9.07;nan;95996.19;5013027;28;19921;-84
2023/04/30 00:03:37;;;;;;;;;;;10.10;74.20;;;9.07;nan;95982.53;5016044;28;19928;-84
2023/04/30 00:06:05;;;;;;;;;;;10.10;74.20;;;9.06;nan;95989.06;5015184;28;19927;-84
2023/04/30 00:08:35;;;;;;;;;;;10.10;75.00;;;9.06;nan;95983.63;4999423;28;20213;-84
2023/04/30 00:11:03;;;;;;;;;;;10.10;74.20;;;9.07;nan;95993.47;5015879;28;20118;-83
2023/04/30 00:13:31;;;;;;;;;;;10.10;74.10;;;9.06;nan;95983.63;5033178;28;20097;-82
2023/04/30 00:15:59;;;;;;;;;;;10.10;74.10;;;9.06;nan;95986.34;5015265;28;19921;-83
2023/04/30 00:18:27;;;;;;;;;;;10.10;74.00;;;9.06;nan;95986.34;4999424;28;19921;-83
2023/04/30 00:20:55;;;;;;;;;;;10.10;74.00;;;9.06;nan;95986.34;4998620;28;19921;-83
2023/04/30 00:23:23;;;;;;;;;;;10.10;74.00;;;9.06;nan;95980.88;5015674;28;19921;-83
2023/04/30 00:25:52;;;;;;;;;;;10.10;74.20;;;9.06;nan;95986.34;5032384;28;19928;-83
2023/04/30 00:28:20;;;;;;;;;;;10.10;74.20;;;9.06;nan;95989.06;4999215;28;19921;-82
2023/04/30 00:30:48;;;;;;;;;;;10.10;74.30;;;9.05;nan;95985.50;4999126;28;19946;-83
2023/04/30 00:33:16;;;;;;;;;;;10.10;74.20;;;9.05;nan;95979.25;4999096;28;19921;-83
2023/04/30 00:35:45;;;;;;;;;;;10.10;74.20;;;9.06;nan;95978.16;5009043;28;20109;-83
2023/04/30 00:38:13;;;;;;;;;;;10.10;74.30;;;9.06;nan;95984.44;5015237;28;19921;-84
2023/04/30 00:40:41;;;;;;;;;;;10.10;74.50;;;9.06;nan;95978.16;4998878;28;19921;-83
2023/04/30 00:43:11;;;;;;;;;;;10.10;74.40;;;9.05;nan;95981.97;4998687;28;19927;-83
2023/04/30 00:45:39;;;;;;;;;;;10.10;74.30;;;9.05;nan;95981.97;5014515;28;19921;-83
2023/04/30 00:48:07;;;;;;;;;;;10.10;74.20;;;9.05;nan;95976.50;5032915;28;19944;-83
2023/04/30 00:50:35;;;;;;;;;;;10.10;74.20;;;9.05;nan;95977.31;4998790;28;19921;-83
2023/04/30 00:53:03;;;;;;;;;;;10.10;74.40;;;9.06;nan;95978.16;4998826;28;19922;-83
2023/04/30 00:55:31;;;;;;;;;;;10.10;74.20;;;9.05;nan;95979.25;5014671;28;19928;-82
2023/04/30 00:58:00;;;;;;;;;;;10.10;74.30;;;9.05;nan;95977.31;5015039;28;19921;-83
2023/04/30 01:00:30;;;;;;;;;;;10.10;74.20;;;9.05;nan;95965.59;4998550;28;20120;-83
2023/04/30 01:02:58;;;;;;;;;;;10.10;74.30;;;9.04;nan;95969.41;4998874;28;19921;-82
2023/04/30 01:05:26;;;;;;;;;;;10.10;74.40;;;9.03;nan;95968.59;4998025;28;19921;-83
2023/04/30 01:07:54;;;;;;;;;;;10.10;74.40;;;9.05;nan;95976.50;4998650;28;20226;-83
2023/04/30 01:10:23;;;;;;;;;;;10.10;74.30;;;9.05;nan;95965.59;4998421;28;19921;-83
2023/04/30 01:13:01;;;;;;;;;;;10.10;74.40;;;9.05;nan;95971.06;4998630;28;19927;-83
2023/04/30 01:15:35;;;;;;;;;;;10.10;74.40;;;9.04;nan;95963.94;4998042;28;20220;-83
2023/04/30 01:18:05;;;;;;;;;;;10.10;74.50;;;9.05;nan;95971.06;4998602;28;19921;-83
2023/04/30 01:20:33;;;;;;;;;;;10.10;74.50;;;9.03;nan;95968.59;4998480;28;19921;-83
2023/04/30 01:23:06;;;;;;;;;;;10.10;74.50;;;9.04;nan;95969.41;4998512;28;19921;-84
2023/04/30 01:26:01;;;;;;;;;;;10.10;74.50;;;9.03;nan;95968.59;4997828;28;20120;-83
2023/04/30 01:28:30;;;;;;;;;;;10.10;74.50;;;9.04;nan;95963.94;4992307;28;19921;-84
2023/04/30 01:30:59;;;;;;;;;;;10.10;74.60;;;9.03;nan;95959.56;5013819;28;19921;-84
2023/04/30 01:33:28;;;;;;;;;;;10.10;74.50;;;9.03;nan;95956.84;4998045;28;19921;-83
2023/04/30 01:36:14;;;;;;;;;;;10.10;74.50;;;9.04;nan;95955.75;4997541;28;20369;-84
2023/04/30 01:39:03;;;;;;;;;;;10.00;74.30;;;9.03;nan;95952.22;5014543;28;19922;-83
2023/04/30 01:41:34;;;;;;;;;;;10.10;74.50;;;9.03;nan;95956.84;4998324;28;20212;-84
2023/04/30 01:44:18;;;;;;;;;;;10.00;74.40;;;9.02;nan;95950.56;4997888;28;19944;-82
2023/04/30 01:46:49;;;;;;;;;;;10.10;74.40;;;9.03;nan;95952.22;4997980;28;20237;-84
2023/04/30 01:49:21;;;;;;;;;;;10.10;74.40;;;9.03;nan;95954.09;4978592;28;19928;-83
2023/04/30 01:51:50;;;;;;;;;;;10.10;74.40;;;9.03;nan;95954.09;4978658;28;19928;-84
2023/04/30 01:54:21;;;;;;;;;;;10.00;74.40;;;9.02;nan;95955.19;4977936;28;19945;-83
2023/04/30 01:56:51;;;;;;;;;;;10.00;74.40;;;9.02;nan;95952.47;4978661;28;19922;-83
2023/04/30 01:59:20;;;;;;;;;;;10.10;74.50;;;9.02;nan;95953.31;4978588;28;19922;-84
2023/04/30 02:01:49;;;;;;;;;;;10.10;74.70;;;9.02;nan;95949.72;4978409;28;19928;-84
2023/04/30 02:04:17;;;;;;;;;;;10.10;74.60;;;9.02;nan;95957.94;4977908;28;20098;-84
2023/04/30 02:06:45;;;;;;;;;;;10.10;74.60;;;9.03;nan;95948.66;4978247;28;19929;-84
2023/04/30 02:09:13;;;;;;;;;;;10.00;74.40;;;9.03;nan;95943.19;4978591;28;19928;-83
2023/04/30 02:11:41;;;;;;;;;;;10.00;74.60;;;9.02;nan;95955.19;4978567;28;19928;-84
2023/04/30 02:14:10;;;;;;;;;;;10.10;74.60;;;9.03;nan;95945.91;4994014;28;19928;-84
2023/04/30 02:16:40;;;;;;;;;;;10.10;74.70;;;9.01;nan;95945.34;4978204;28;19922;-84
2023/04/30 02:19:08;;;;;;;;;;;10.00;74.60;;;9.01;nan;95943.47;4978096;28;19935;-84
2023/04/30 02:21:36;;;;;;;;;;;10.00;74.70;;;9.02;nan;95944.28;4978262;28;20231;-83
2023/04/30 02:24:05;;;;;;;;;;;10.10;74.80;;;9.02;nan;95949.72;4977552;28;19921;-83
2023/04/30 02:26:33;;;;;;;;;;;10.00;74.80;;;9.02;nan;95945.09;4977983;28;19921;-84
2023/04/30 02:29:01;;;;;;;;;;;10.00;74.80;;;9.01;nan;95945.34;4978085;28;19944;-84
2023/04/30 02:31:29;;;;;;;;;;;10.00;74.80;;;9.01;nan;95943.47;4994198;28;20209;-84
2023/04/30 02:33:58;;;;;;;;;;;10.00;74.80;;;9.01;nan;95943.47;4994251;28;19922;-84
2023/04/30 02:36:26;;;;;;;;;;;10.00;74.90;;;9.01;nan;95940.72;4977570;28;20174;-84
2023/04/30 02:38:55;;;;;;;;;;;10.00;74.80;;;9.02;nan;95947.84;4977371;28;20227;-83
2023/04/30 02:41:23;;;;;;;;;;;10.00;74.80;;;9.01;nan;95942.63;4994030;28;19944;-83
2023/04/30 02:43:51;;;;;;;;;;;10.00;74.90;;;9.01;nan;95939.91;4979755;28;19921;-84
2023/04/30 02:46:19;;;;;;;;;;;10.00;74.90;;;9.01;nan;95945.34;4979647;28;19922;-83
2023/04/30 02:48:47;;;;;;;;;;;10.00;74.90;;;9.01;nan;95942.63;4997518;28;20098;-84
2023/04/30 02:51:17;;;;;;;;;;;10.00;74.90;;;9.01;nan;95948.09;4997543;28;19921;-84
2023/04/30 02:53:45;;;;;;;;;;;10.00;74.80;;;9.00;nan;95938.25;4981178;28;19921;-84
2023/04/30 02:56:13;;;;;;;;;;;10.00;74.90;;;8.99;nan;95939.34;4980437;28;19921;-83
2023/04/30 02:58:41;;;;;;;;;;;10.00;74.80;;;9.01;nan;95945.34;4986715;28;19927;-83
2023/04/30 03:01:09;;;;;;;;;;;10.00;74.80;;;9.00;nan;95941.81;5000595;28;20213;-83
2023/04/30 03:03:37;;;;;;;;;;;10.00;74.80;;;8.99;nan;95950.25;5000449;28;19928;-83
2023/04/30 03:06:06;;;;;;;;;;;10.00;75.00;;;9.00;nan;95954.63;4999733;28;19928;-83
2023/04/30 03:08:35;;;;;;;;;;;10.00;74.90;;;9.00;nan;95951.91;5000428;28;19928;-83
2023/04/30 03:11:03;;;;;;;;;;;10.00;75.00;;;9.00;nan;95949.16;5000494;28;20116;-83
2023/04/30 03:13:31;;;;;;;;;;;10.00;75.00;;;9.00;nan;95950.00;5000233;28;19921;-83
2023/04/30 03:15:59;;;;;;;;;;;10.00;75.00;;;8.99;nan;95961.19;5015976;28;19921;-83
2023/04/30 03:18:28;;;;;;;;;;;10.00;75.00;;;9.00;nan;95958.19;5000390;28;19921;-84
2023/04/30 03:20:56;;;;;;;;;;;10.00;75.00;;;8.99;nan;95959.28;5000287;28;19927;-84
2023/04/30 03:23:24;;;;;;;;;;;10.00;75.10;;;9.00;nan;95955.47;5000239;28;19921;-84
2023/04/30 03:25:53;;;;;;;;;;;10.00;75.10;;;8.99;nan;95959.28;4999646;28;19928;-84
2023/04/30 03:28:21;;;;;;;;;;;10.00;75.20;;;8.99;nan;95962.00;5002626;23;19928;-87
2023/04/30 03:30:50;;;;;;;;;;;10.00;75.10;;;8.99;nan;95967.47;4976977;28;19922;-87
2023/04/30 03:33:18;;;;;;;;;;;10.00;75.20;;;8.99;nan;95964.75;5009867;28;19921;-87
2023/04/30 03:35:46;;;;;;;;;;;10.00;75.20;;;9.00;nan;95965.56;5009339;28;19921;-88
2023/04/30 03:38:14;;;;;;;;;;;10.00;75.00;;;9.00;nan;95965.56;5009692;28;19922;-87
2023/04/30 03:40:42;;;;;;;;;;;10.00;75.30;;;8.99;nan;95972.94;4993447;28;19928;-88
2023/04/30 03:43:12;;;;;;;;;;;10.00;75.10;;;8.99;nan;95966.63;4993432;28;19922;-87
2023/04/30 03:45:40;;;;;;;;;;;10.00;75.10;;;9.00;nan;95962.81;4976659;28;19928;-88
2023/04/30 03:48:08;;;;;;;;;;;10.00;75.10;;;8.99;nan;95967.47;4977143;28;19922;-86
2023/04/30 03:50:36;;;;;;;;;;;10.00;75.20;;;9.00;nan;95979.22;4993191;28;19922;-86
2023/04/30 03:53:04;;;;;;;;;;;10.00;75.30;;;8.98;nan;95971.28;4993127;28;19928;-87
2023/04/30 03:55:32;;;;;;;;;;;10.00;75.30;;;8.99;nan;95977.56;4975714;28;19928;-86
2023/04/30 03:58:00;;;;;;;;;;;10.00;75.40;;;8.99;nan;95974.81;4976972;28;19921;-87
2023/04/30 04:00:30;;;;;;;;;;;10.00;75.30;;;8.97;nan;95977.03;4976984;28;19922;-86
2023/04/30 04:02:59;;;;;;;;;;;10.00;75.40;;;8.99;nan;95978.41;4976859;28;19922;-86
2023/04/30 04:05:28;;;;;;;;;;;10.00;75.40;;;8.97;nan;95974.31;4976231;28;19928;-87
2023/04/30 04:07:56;;;;;;;;;;;10.00;75.30;;;8.99;nan;95980.28;4976621;28;19922;-86
2023/04/30 04:10:24;;;;;;;;;;;10.00;75.30;;;8.99;nan;95989.31;4976978;28;19922;-87
2023/04/30 04:12:52;;;;;;;;;;;10.00;75.30;;;8.99;nan;95992.06;4976715;28;19922;-87
2023/04/30 04:15:20;;;;;;;;;;;10.00;75.40;;;8.99;nan;95983.03;4976192;28;19922;-87
2023/04/30 04:17:50;;;;;;;;;;;10.00;75.60;;;8.99;nan;95986.59;4976673;28;19922;-87
2023/04/30 04:20:18;;;;;;;;;;;10.00;75.60;;;9.00;nan;95992.84;4976728;28;19922;-87
2023/04/30 04:22:46;;;;;;;;;;;10.00;75.60;;;8.99;nan;95986.59;4992695;28;19928;-85
2023/04/30 04:25:14;;;;;;;;;;;10.00;75.60;;;8.97;nan;95990.69;4976199;28;20209;-87
2023/04/30 04:27:44;;;;;;;;;;;10.00;75.60;;;9.00;nan;95995.59;4984640;28;19939;-86
2023/04/30 04:30:13;;;;;;;;;;;10.00;75.60;;;9.00;nan;95995.59;4992710;28;19926;-87
2023/04/30 04:32:45;;;;;;;;;;;10.00;75.50;;;8.99;nan;95993.94;4976390;28;19922;-87
2023/04/30 04:35:15;;;;;;;;;;;10.00;75.70;;;9.00;nan;96001.06;4991888;28;20201;-87
2023/04/30 04:37:44;;;;;;;;;;;10.00;75.70;;;8.99;nan;95993.94;4976601;28;19929;-85
2023/04/30 04:40:12;;;;;;;;;;;10.00;75.80;;;8.97;nan;95996.16;4976353;28;19922;-86
2023/04/30 04:42:41;;;;;;;;;;;10.00;75.70;;;9.00;nan;96003.78;4992564;28;19928;-86
2023/04/30 04:45:10;;;;;;;;;;;10.00;75.60;;;9.00;nan;96001.06;4975789;28;19922;-86
2023/04/30 04:47:38;;;;;;;;;;;10.00;75.60;;;9.00;nan;96007.34;4992477;28;19925;-86
2023/04/30 04:50:07;;;;;;;;;;;10.00;75.60;;;8.98;nan;96004.06;4976087;28;19922;-86
2023/04/30 04:52:36;;;;;;;;;;;10.00;75.40;;;9.00;nan;96006.50;4992300;28;19928;-86
2023/04/30 04:55:06;;;;;;;;;;;10.00;75.40;;;9.00;nan;96006.50;4991727;28;19922;-87
2023/04/30 04:57:34;;;;;;;;;;;10.00;75.40;;;9.00;nan;96012.81;4976076;28;19944;-86
2023/04/30 05:00:03;;;;;;;;;;;10.00;75.50;;;9.00;nan;96006.50;4975944;28;19928;-86
2023/04/30 05:02:31;;;;;;;;;;;10.00;75.50;;;9.01;nan;96019.06;4992235;28;19922;-87
2023/04/30 05:05:00;;;;;;;;;;;10.00;75.40;;;9.00;nan;96011.97;4975440;28;19921;-86
2023/04/30 05:07:29;;;;;;;;;;;10.00;75.30;;;9.00;nan;96017.44;4975557;28;20134;-87
2023/04/30 05:09:58;;;;;;;;;;;10.00;75.60;;;9.01;nan;96019.06;4975886;28;19922;-86
2023/04/30 05:12:26;;;;;;;;;;;10.00;75.40;;;9.01;nan;96019.06;4992183;28;19922;-87
2023/04/30 05:14:54;;;;;;;;;;;10.00;75.50;;;9.02;nan;96015.25;4975119;28;19922;-87
2023/04/30 05:17:22;;;;;;;;;;;10.10;75.50;;;9.03;nan;96019.63;4975795;28;19928;-87
2023/04/30 05:19:51;;;;;;;;;;;10.00;75.30;;;9.01;nan;96013.63;4992043;28;19922;-87
2023/04/30 05:22:20;;;;;;;;;;;10.00;75.40;;;9.04;nan;96024.00;4991886;28;19921;-87
2023/04/30 05:24:48;;;;;;;;;;;10.10;75.60;;;9.03;nan;96023.22;4975115;28;19922;-87
2023/04/30 05:27:18;;;;;;;;;;;10.10;75.70;;;9.06;nan;96021.84;4991594;28;19928;-86
2023/04/30 05:29:46;;;;;;;;;;;10.10;75.80;;;9.06;nan;96022.66;4975550;28;19928;-87
2023/04/30 05:32:14;;;;;;;;;;;10.10;75.90;;;9.07;nan;96023.50;4991922;28;19928;-86
2023/04/30 05:34:42;;;;;;;;;;;10.10;76.00;;;9.09;nan;96026.78;4974819;28;19922;-87
2023/04/30 05:37:11;;;;;;;;;;;10.10;76.80;;;9.10;nan;96022.94;4991811;28;20205;-86
2023/04/30 05:39:39;;;;;;;;;;;10.10;76.80;;;9.13;nan;96027.88;4975442;28;19922;-87
2023/04/30 05:42:07;;;;;;;;;;;10.10;76.70;;;9.15;nan;96022.97;4975523;28;19922;-87
2023/04/30 05:44:37;;;;;;;;;;;10.20;76.90;;;9.16;nan;96024.63;4974676;28;19921;-87
2023/04/30 05:47:05;;;;;;;;;;;10.20;77.10;;;9.21;nan;96032.00;4975401;28;19928;-86
2023/04/30 05:49:33;;;;;;;;;;;10.20;77.20;;;9.24;nan;96031.50;4991455;28;19922;-86
2023/04/30 05:52:02;;;;;;;;;;;10.30;77.20;;;9.28;nan;96032.59;4991635;28;19922;-87
2023/04/30 05:54:30;;;;;;;;;;;10.30;76.90;;;9.32;nan;96032.88;4990757;28;19921;-86
2023/04/30 05:56:58;;;;;;;;;;;10.30;76.80;;;9.34;nan;96028.00;4992462;28;19928;-85
2023/04/30 05:59:26;;;;;;;;;;;10.40;76.60;;;9.37;nan;96030.16;4991230;28;19922;-86
2023/04/30 06:01:56;;;;;;;;;;;10.40;76.50;;;9.38;nan;96034.53;4971060;28;20368;-86
2023/04/30 06:04:24;;;;;;;;;;;10.40;76.50;;;9.40;nan;96029.63;4974467;28;19934;-87
2023/04/30 06:06:52;;;;;;;;;;;10.40;76.40;;;9.40;nan;96024.16;4974905;28;19934;-87
2023/04/30 06:09:20;;;;;;;;;;;10.50;76.40;;;9.41;nan;96034.00;4992363;28;19928;-87
2023/04/30 06:11:49;;;;;;;;;;;10.50;76.50;;;9.41;nan;96033.19;4975185;28;19928;-86
2023/04/30 06:14:17;;;;;;;;;;;10.40;76.40;;;9.38;nan;96034.53;4974153;28;19928;-87
2023/04/30 06:16:45;;;;;;;;;;;10.40;77.20;;;9.40;nan;96032.38;4958866;28;19928;-87
2023/04/30 06:19:15;;;;;;;;;;;10.50;76.50;;;9.40;nan;96032.38;4958356;28;19922;-87
2023/04/30 06:21:43;;;;;;;;;;;10.40;76.30;;;9.39;nan;96029.91;4975071;28;20117;-86
2023/04/30 06:24:11;;;;;;;;;;;10.40;76.40;;;9.39;nan;96036.19;4958286;28;19922;-87
2023/04/30 06:26:39;;;;;;;;;;;10.50;76.60;;;9.38;nan;96034.53;4974547;28;19929;-87
2023/04/30 06:29:07;;;;;;;;;;;10.40;76.40;;;9.39;nan;96041.66;4958887;28;19922;-86
2023/04/30 06:31:35;;;;;;;;;;;10.40;76.40;;;9.42;nan;96040.31;4974796;28;19922;-86
2023/04/30 06:34:03;;;;;;;;;;;10.50;76.50;;;9.41;nan;96038.66;4974385;28;19953;-88
2023/04/30 06:36:33;;;;;;;;;;;10.40;76.40;;;9.41;nan;96042.22;4974785;28;19944;-87
2023/04/30 06:39:02;;;;;;;;;;;10.40;76.40;;;9.41;nan;96038.66;4958624;28;19922;-87
2023/04/30 06:41:30;;;;;;;;;;;10.50;76.50;;;9.41;nan;96039.47;4974729;28;19926;-87
2023/04/30 06:43:58;;;;;;;;;;;10.50;76.60;;;9.40;nan;96043.28;4958564;28;19922;-88
2023/04/30 06:46:26;;;;;;;;;;;10.40;76.50;;;9.39;nan;96041.66;4958328;28;19922;-87
2023/04/30 06:48:54;;;;;;;;;;;10.40;76.50;;;9.38;nan;96050.94;4988932;28;19929;-87
2023/04/30 06:51:22;;;;;;;;;;;10.40;76.60;;;9.36;nan;96042.19;4974542;28;19929;-87
2023/04/30 06:53:51;;;;;;;;;;;10.40;76.60;;;9.39;nan;96049.03;4974716;28;20220;-87
2023/04/30 06:56:20;;;;;;;;;;;10.40;76.60;;;9.37;nan;96049.28;4973685;28;19922;-87
2023/04/30 06:58:49;;;;;;;;;;;10.40;76.60;;;9.37;nan;96038.34;4990826;28;19938;-86
2023/04/30 07:01:17;;;;;;;;;;;10.40;76.60;;;9.34;nan;96045.19;4990769;28;19985;-87
2023/04/30 07:03:45;;;;;;;;;;;10.40;76.60;;;9.36;nan;96047.63;4990742;28;20259;-88
2023/04/30 07:06:14;;;;;;;;;;;10.40;76.60;;;9.36;nan;96048.47;4989986;28;19928;-87
2023/04/30 07:08:42;;;;;;;;;;;10.40;76.70;;;9.36;nan;96047.63;4974409;28;20121;-87
2023/04/30 07:11:12;;;;;;;;;;;10.40;76.80;;;9.36;nan;96050.38;4974382;28;19993;-87
2023/04/30 07:13:40;;;;;;;;;;;10.40;76.70;;;9.34;nan;96050.66;4974320;28;19922;-88
2023/04/30 07:16:09;;;;;;;;;;;10.40;76.80;;;9.36;nan;96055.84;4989697;28;19928;-88
2023/04/30 07:18:38;;;;;;;;;;;10.40;76.80;;;9.36;nan;96055.84;4974660;28;20227;-87
2023/04/30 07:21:07;;;;;;;;;;;10.40;76.80;;;9.36;nan;96053.09;4990406;28;19944;-87
2023/04/30 07:23:35;;;;;;;;;;;10.40;76.80;;;9.35;nan;96056.94;4967108;28;19928;-87
2023/04/30 07:26:03;;;;;;;;;;;10.40;76.80;;;9.36;nan;96064.88;4973409;28;19922;-87
2023/04/30 07:28:32;;;;;;;;;;;10.40;76.80;;;9.35;nan;96060.50;4957909;28;19922;-87
2023/04/30 07:31:00;;;;;;;;;;;10.40;76.80;;;9.35;nan;96060.50;4976811;28;19948;-87
2023/04/30 07:33:29;;;;;;;;;;;10.40;76.80;;;9.35;nan;96059.69;4961541;28;19928;-86
2023/04/30 07:35:57;;;;;;;;;;;10.40;76.80;;;9.35;nan;96057.75;4960546;28;20239;-86
2023/04/30 07:38:26;;;;;;;;;;;10.40;76.80;;;9.35;nan;96057.75;4961241;28;19922;-87
2023/04/30 07:40:54;;;;;;;;;;;10.40;76.90;;;9.36;nan;96058.56;4961184;28;19944;-87
2023/04/30 07:43:22;;;;;;;;;;;10.40;76.80;;;9.36;nan;96048.47;4961272;28;19928;-88
2023/04/30 07:45:53;;;;;;;;;;;10.40;76.90;;;9.36;nan;96055.84;4976623;28;19922;-87
2023/04/30 07:48:21;;;;;;;;;;;10.40;76.80;;;9.38;nan;96056.41;4977420;28;19921;-87
2023/04/30 07:50:49;;;;;;;;;;;10.40;76.80;;;9.38;nan;96059.13;4961171;28;19921;-87
2023/04/30 07:53:17;;;;;;;;;;;10.40;76.80;;;9.39;nan;96052.56;4961498;28;19928;-87
2023/04/30 07:55:46;;;;;;;;;;;10.40;76.80;;;9.42;nan;96054.78;4976338;28;19922;-87
2023/04/30 07:58:14;;;;;;;;;;;10.40;76.70;;;9.41;nan;96055.88;4977023;28;20209;-87
2023/04/30 08:00:42;;;;;;;;;;;10.40;76.70;;;9.44;nan;96052.63;4977054;28;19921;-87
2023/04/30 08:03:11;;;;;;;;;;;10.50;76.80;;;9.45;nan;96059.72;4977054;28;19922;-87
2023/04/30 08:05:40;;;;;;;;;;;10.50;76.70;;;9.46;nan;96055.91;4976308;28;19922;-86
2023/04/30 08:08:08;;;;;;;;;;;10.50;76.70;;;9.45;nan;96051.53;4976844;28;20098;-87
2023/04/30 08:10:36;;;;;;;;;;;10.50;76.60;;;9.49;nan;96058.06;4977036;28;19921;-87
2023/04/30 08:13:04;;;;;;;;;;;10.50;76.60;;;9.51;nan;96061.38;4976857;28;20239;-88
2023/04/30 08:15:33;;;;;;;;;;;10.50;76.50;;;9.53;nan;96052.94;4993473;28;20205;-86
2023/04/30 08:18:02;;;;;;;;;;;10.50;76.40;;;9.55;nan;96055.38;4976784;28;19928;-87
2023/04/30 08:20:32;;;;;;;;;;;10.60;76.60;;;9.54;nan;96064.66;4992988;28;19922;-87
2023/04/30 08:23:00;;;;;;;;;;;10.60;76.40;;;9.55;nan;96056.22;4992821;28;19922;-86
2023/04/30 08:25:28;;;;;;;;;;;10.50;76.30;;;9.57;nan;96053.19;4975997;28;19953;-87
2023/04/30 08:27:56;;;;;;;;;;;10.60;76.40;;;9.57;nan;96055.94;5006902;28;20345;-87
2023/04/30 08:30:24;;;;;;;;;;;10.60;76.30;;;9.57;nan;96058.66;4979894;28;19944;-86
2023/04/30 08:32:52;;;;;;;;;;;10.60;76.30;;;9.59;nan;96054.56;4980042;28;19927;-87
2023/04/30 08:35:21;;;;;;;;;;;10.60;76.30;;;9.60;nan;96049.94;4979293;28;19921;-88
2023/04/30 08:37:50;;;;;;;;;;;10.60;76.20;;;9.59;nan;96045.56;4995908;28;19922;-87
2023/04/30 08:40:19;;;;;;;;;;;10.70;76.30;;;9.62;nan;96048.56;4979386;28;19928;-88
2023/04/30 08:42:50;;;;;;;;;;;10.60;76.30;;;9.66;nan;96048.84;4979618;28;20120;-87
2023/04/30 08:45:18;;;;;;;;;;;10.70;76.30;;;9.70;nan;96039.03;4995253;28;19936;-87
2023/04/30 08:47:47;;;;;;;;;;;10.70;76.20;;;9.76;nan;96034.41;4995489;28;20106;-87
2023/04/30 08:50:15;;;;;;;;;;;10.80;75.90;;;9.84;nan;96044.81;4995611;28;19921;-88
2023/04/30 08:52:43;;;;;;;;;;;10.80;75.70;;;9.88;nan;96045.06;4979300;28;19936;-87
2023/04/30 08:55:12;;;;;;;;;;;10.90;75.60;;;9.92;nan;96037.97;4995030;28;19928;-87
2023/04/30 08:57:40;;;;;;;;;;;10.90;75.40;;;9.95;nan;96035.53;4995320;28;19922;-87
2023/04/30 09:00:09;;;;;;;;;;;10.90;75.30;;;9.98;nan;96037.72;4979398;28;19922;-87
2023/04/30 09:02:39;;;;;;;;;;;11.00;75.20;;;9.98;nan;96025.97;4979378;28;19921;-88
2023/04/30 09:05:09;;;;;;;;;;;11.00;75.00;;;9.98;nan;96026.78;4978831;28;19922;-88
2023/04/30 09:07:37;;;;;;;;;;;11.00;75.00;;;9.99;nan;96027.63;4979255;28;20069;-88
2023/04/30 09:10:06;;;;;;;;;;;11.00;75.10;;;10.02;nan;96027.06;4979388;28;19921;-87
2023/04/30 09:12:36;;;;;;;;;;;11.00;75.00;;;10.03;nan;96027.91;4979220;28;20208;-87
2023/04/30 09:15:05;;;;;;;;;;;11.10;75.00;;;10.04;nan;96022.16;4978668;28;19921;-88
2023/04/30 09:17:34;;;;;;;;;;;11.10;75.00;;;10.05;nan;96021.06;4979073;28;19921;-87
2023/04/30 09:20:10;;;;;;;;;;;11.10;75.00;;;10.06;nan;96017.22;4979208;28;19921;-88
2023/04/30 09:22:38;;;;;;;;;;;11.10;74.90;;;10.07;nan;96015.34;4995123;28;19921;-88
2023/04/30 09:25:10;;;;;;;;;;;11.10;75.00;;;10.07;nan;96020.81;4994625;28;20227;-87
2023/04/30 09:27:39;;;;;;;;;;;11.10;75.00;;;10.05;nan;96012.84;5006142;28;19921;-87
2023/04/30 09:30:09;;;;;;;;;;;11.10;75.00;;;10.03;nan;96009.56;4995072;28;20177;-88
2023/04/30 09:32:37;;;;;;;;;;;11.10;75.10;;;10.02;nan;96005.19;4978809;28;19921;-87
2023/04/30 09:35:05;;;;;;;;;;;11.10;75.20;;;10.02;nan;96002.44;4977834;28;19927;-87
2023/04/30 09:37:37;;;;;;;;;;;11.10;75.20;;;10.01;nan;96014.47;5011132;28;19929;-87
2023/04/30 09:40:06;;;;;;;;;;;11.10;75.20;;;10.03;nan;96006.81;4994918;28;19921;-87
2023/04/30 09:42:35;;;;;;;;;;;11.10;75.20;;;10.01;nan;96009.00;4978742;28;19928;-87
2023/04/30 09:45:05;;;;;;;;;;;11.10;75.20;;;10.00;nan;96003.81;4994409;28;19943;-87
2023/04/30 09:47:34;;;;;;;;;;;11.00;75.20;;;9.98;nan;96004.91;4978703;28;19921;-88
2023/04/30 09:50:02;;;;;;;;;;;11.00;75.20;;;9.98;nan;95993.97;4994755;28;19921;-88
2023/04/30 09:52:30;;;;;;;;;;;11.00;75.30;;;10.00;nan;95996.44;4993779;28;20209;-86
2023/04/30 09:54:59;;;;;;;;;;;11.00;75.30;;;10.01;nan;95989.84;4994290;28;20120;-87
2023/04/30 09:57:27;;;;;;;;;;;11.00;75.30;;;10.01;nan;95992.59;4978393;28;19928;-87
2023/04/30 09:59:57;;;;;;;;;;;11.00;75.30;;;10.00;nan;95990.97;4994720;28;19922;-88
2023/04/30 10:02:26;;;;;;;;;;;11.00;75.30;;;10.00;nan;95988.25;5012038;28;19928;-88
2023/04/30 10:04:55;;;;;;;;;;;11.00;76.20;;;10.01;nan;95991.78;4977871;28;19944;-88
2023/04/30 10:07:25;;;;;;;;;;;11.00;75.30;;;10.01;nan;95984.38;4994381;28;19921;-89
2023/04/30 10:09:57;;;;;;;;;;;11.00;75.40;;;10.01;nan;95978.91;4994345;28;19921;-86
2023/04/30 10:12:27;;;;;;;;;;;11.00;75.40;;;10.00;nan;95985.50;4975715;28;19923;-87
2023/04/30 10:14:57;;;;;;;;;;;11.00;75.30;;;10.00;nan;95985.50;4958311;28;19922;-87
2023/04/30 10:17:28;;;;;;;;;;;11.00;75.30;;;9.98;nan;95987.69;4959005;28;19922;-87
2023/04/30 10:19:58;;;;;;;;;;;11.00;75.40;;;9.98;nan;95982.22;4959101;28;19922;-87
2023/04/30 10:22:26;;;;;;;;;;;11.00;75.50;;;9.97;nan;95986.84;4958808;28;19928;-88
2023/04/30 10:24:54;;;;;;;;;;;11.00;75.60;;;9.96;nan;95981.66;4958287;28;19922;-88
2023/04/30 10:27:22;;;;;;;;;;;11.00;75.60;;;9.96;nan;95978.94;4971530;28;19928;-88
2023/04/30 10:29:50;;;;;;;;;;;11.00;75.60;;;9.95;nan;95977.28;4955492;28;19923;-88
2023/04/30 10:32:18;;;;;;;;;;;11.00;75.60;;;9.94;nan;95971.00;4955199;28;19929;-88
2023/04/30 10:34:50;;;;;;;;;;;11.00;75.70;;;9.94;nan;95987.38;4971154;28;19922;-87
2023/04/30 10:37:21;;;;;;;;;;;11.00;75.80;;;9.92;nan;95980.56;4971338;28;19944;-88
2023/04/30 10:39:50;;;;;;;;;;;11.00;75.80;;;9.93;nan;95976.75;4955433;28;19928;-88
2023/04/30 10:42:18;;;;;;;;;;;10.90;75.90;;;9.90;nan;95974.53;4955471;28;19923;-88
2023/04/30 10:44:47;;;;;;;;;;;10.90;76.00;;;9.90;nan;95971.81;4954797;28;19929;-88
2023/04/30 10:47:15;;;;;;;;;;;10.90;76.00;;;9.90;nan;95963.59;4971278;28;20129;-88
2023/04/30 10:49:47;;;;;;;;;;;10.90;76.00;;;9.92;nan;95972.34;4955302;28;20323;-87
2023/04/30 10:52:26;;;;;;;;;;;10.90;76.00;;;9.92;nan;95966.88;4970929;28;19929;-88
2023/04/30 10:54:54;;;;;;;;;;;10.90;76.10;;;9.93;nan;95965.81;4970940;28;19922;-87
2023/04/30 10:57:22;;;;;;;;;;;11.00;76.00;;;9.92;nan;95964.16;4955199;28;19922;-87
2023/04/30 10:59:54;;;;;;;;;;;11.00;76.00;;;9.93;nan;95960.34;4954884;28;19928;-88
2023/04/30 11:02:22;;;;;;;;;;;11.00;75.90;;;9.93;nan;95952.97;4972489;28;19937;-87
2023/04/30 11:05:09;;;;;;;;;;;11.00;76.00;;;9.94;nan;95956.50;4956918;28;19928;-86
2023/04/30 11:07:47;;;;;;;;;;;10.90;76.00;;;9.95;nan;95958.16;4974491;28;19929;-87
2023/04/30 11:10:15;;;;;;;;;;;11.00;75.90;;;9.93;nan;95939.28;4958468;28;19922;-88
2023/04/30 11:12:47;;;;;;;;;;;10.90;75.90;;;9.96;nan;95946.13;4958694;28;19922;-88
2023/04/30 11:15:17;;;;;;;;;;;11.00;75.90;;;9.96;nan;95949.66;4974034;28;20214;-88
2023/04/30 11:17:45;;;;;;;;;;;11.00;75.90;;;9.96;nan;95946.13;4958441;28;19922;-88
2023/04/30 11:20:13;;;;;;;;;;;11.00;75.80;;;9.97;nan;95942.28;4958246;28;20119;-88
2023/04/30 11:22:43;;;;;;;;;;;11.00;75.80;;;9.97;nan;95942.28;4974340;28;19922;-88
2023/04/30 11:25:12;;;;;;;;;;;11.00;75.80;;;9.97;nan;95943.09;4973754;28;20117;-88
2023/04/30 11:27:43;;;;;;;;;;;11.00;75.80;;;9.98;nan;95938.47;4972403;28;19921;-88
2023/04/30 11:30:13;;;;;;;;;;;11.00;75.80;;;9.99;nan;95940.13;4996846;28;20216;-87
2023/04/30 11:36:43;;;;;;;;;;;11.00;75.80;;;9.98;nan;95943.94;4988674;28;19921;-87
2023/04/30 11:39:16;;;;;;;;;;;11.00;75.80;;;9.97;nan;95947.75;4950955;28;19944;-88
2023/04/30 11:41:45;;;;;;;;;;;11.00;76.80;;;9.95;nan;95945.28;4922209;29;19922;-88
2023/04/30 11:44:22;;;;;;;;;;;11.00;76.00;;;9.94;nan;95943.63;4937403;29;19922;-88
2023/04/30 11:46:51;;;;;;;;;;;11.00;76.10;;;9.95;nan;95944.47;4938069;29;20185;-88
2023/04/30 11:49:20;;;;;;;;;;;11.00;76.10;;;9.96;nan;95946.13;4937926;29;19922;-86
2023/04/30 11:51:49;;;;;;;;;;;10.90;76.10;;;9.95;nan;95945.28;4937810;29;20225;-88
2023/04/30 11:54:18;;;;;;;;;;;11.00;76.10;;;9.95;nan;95931.63;4921565;29;19933;-89